createdAt,value
2018-08-01T06:58:13.079Z,29.87
2018-08-01T06:58:53.949Z,29.94
2018-08-01T06:59:34.713Z,29.95
2018-08-01T07:00:15.458Z,29.92
2018-08-01T07:00:56.296Z,29.95
2018-08-01T07:01:37.087Z,29.95
2018-08-01T07:02:17.825Z,29.97
2018-08-01T07:02:58.589Z,30
2018-08-01T07:03:39.348Z,30
2018-08-01T07:04:20.245Z,29.98
2018-08-01T07:05:01.045Z,29.95
2018-08-01T07:05:41.943Z,29.94
2018-08-01T07:06:22.740Z,29.97
2018-08-01T07:07:03.519Z,29.98
2018-08-01T07:07:44.270Z,29.97
2018-08-01T07:08:25.078Z,30.08
2018-08-01T07:09:05.893Z,30.04
2018-08-01T07:09:46.720Z,30.04
2018-08-01T07:10:27.714Z,30.08
2018-08-01T07:11:08.540Z,30.07
2018-08-01T07:13:08.452Z,31.32
2018-08-01T07:13:49.243Z,32.08
2018-08-01T07:14:30.049Z,33.09
2018-08-01T07:15:10.769Z,33.88
2018-08-01T07:15:52.051Z,34.8
2018-08-01T07:16:32.884Z,35.72
2018-08-01T07:17:13.746Z,36.29
2018-08-01T07:17:55.485Z,36.85
2018-08-01T07:18:36.293Z,37.39
2018-08-01T07:19:17.123Z,37.74
2018-08-01T07:19:57.984Z,38.04
2018-08-01T07:20:38.741Z,38.12
2018-08-01T07:21:19.483Z,37.75
2018-08-01T07:22:00.201Z,37.91
2018-08-01T07:22:41.117Z,37.79
2018-08-01T07:23:21.857Z,37.29
2018-08-01T07:24:02.627Z,36.8
2018-08-01T07:24:43.457Z,36.23
2018-08-01T07:25:24.297Z,35.92
2018-08-01T07:26:05.148Z,35.66
2018-08-01T07:26:45.879Z,35.34
2018-08-01T07:27:26.617Z,35.14
2018-08-01T07:28:07.489Z,34.82
2018-08-01T07:28:48.214Z,34.62
2018-08-01T07:29:29.046Z,34.52
2018-08-01T07:30:09.910Z,34.58
2018-08-01T07:30:50.719Z,34.54
2018-08-01T07:31:31.739Z,34.59
2018-08-01T07:32:12.588Z,34.64
2018-08-01T07:32:53.417Z,34.7
2018-08-01T07:33:34.291Z,34.82
2018-08-01T07:34:15.008Z,34.82
2018-08-01T07:34:55.763Z,34.94
2018-08-01T07:35:36.592Z,34.7
2018-08-01T07:36:17.554Z,34.92
2018-08-01T07:36:58.430Z,35.33
2018-08-01T07:37:39.206Z,35.26
2018-08-01T07:38:20.069Z,35.66
2018-08-01T07:39:00.831Z,36.03
2018-08-01T07:39:41.622Z,36.29
2018-08-01T07:40:22.450Z,37.09
2018-08-01T07:41:03.222Z,37.55
2018-08-01T07:41:44.022Z,38.09
2018-08-01T07:42:24.857Z,38.81
2018-08-01T07:43:05.668Z,38.61
2018-08-01T07:43:46.500Z,38.81
2018-08-01T07:44:27.256Z,38.81
2018-08-01T07:45:08.054Z,39.63
2018-08-01T07:45:49.204Z,39.85
2018-08-01T07:46:30.084Z,40.8
2018-08-01T07:47:10.865Z,40.96
2018-08-01T07:47:51.675Z,40.74
2018-08-01T07:48:32.442Z,39.43
2018-08-01T07:49:13.357Z,39.54
2018-08-01T07:49:54.276Z,40.82
2018-08-01T07:50:35.018Z,41.25
2018-08-01T07:51:15.807Z,41.98
2018-08-01T07:51:56.554Z,43
2018-08-01T07:52:37.358Z,42.81
2018-08-01T07:53:18.215Z,42.54
2018-08-01T07:53:59.158Z,42.45
2018-08-01T07:54:39.969Z,42.8
2018-08-01T07:55:20.824Z,43.12
2018-08-01T07:56:01.624Z,42.95
2018-08-01T07:56:42.445Z,41.42
2018-08-01T07:57:23.344Z,41.3
2018-08-01T07:58:04.017Z,42.25
2018-08-01T07:58:44.865Z,42.99
2018-08-01T07:59:25.699Z,42.36
2018-08-01T08:00:06.497Z,42.47
2018-08-01T08:00:47.241Z,42.89
2018-08-01T08:01:27.971Z,43.64
2018-08-01T08:02:08.798Z,43.83
2018-08-01T08:02:49.653Z,44.05
2018-08-01T08:03:30.515Z,43.46
2018-08-01T08:04:11.292Z,43.52
2018-08-01T08:04:52.067Z,44.05
2018-08-01T08:05:32.855Z,44.37
2018-08-01T08:06:13.736Z,43.53
2018-08-01T08:06:54.529Z,44.05
2018-08-01T08:07:35.245Z,44.05
2018-08-01T08:08:16.074Z,44.46
2018-08-01T08:08:56.888Z,44.5
2018-08-01T08:09:37.721Z,43.08
2018-08-01T08:10:18.499Z,42.86
2018-08-01T08:10:59.315Z,43.08
2018-08-01T08:11:40.086Z,42.71
2018-08-01T08:12:20.888Z,43.38
2018-08-01T08:13:01.683Z,44.09
2018-08-01T08:13:42.418Z,44.25
2018-08-01T08:14:23.270Z,44.21
2018-08-01T08:15:04.105Z,44.66
2018-08-01T08:15:44.916Z,45.04
2018-08-01T08:16:25.718Z,45.29
2018-08-01T08:17:06.586Z,45.39
2018-08-01T08:17:47.367Z,45.45
2018-08-01T08:18:28.261Z,45.5
2018-08-01T08:19:09.063Z,45.42
2018-08-01T08:19:49.803Z,45.39
2018-08-01T08:20:30.564Z,44.7
2018-08-01T08:21:11.456Z,43.42
2018-08-01T08:21:52.227Z,43.08
2018-08-01T08:22:33.102Z,42.52
2018-08-01T08:23:13.889Z,42.96
2018-08-01T08:23:54.652Z,43.68
2018-08-01T08:24:35.537Z,44.51
2018-08-01T08:25:16.301Z,44.19
2018-08-01T08:25:57.051Z,43.53
2018-08-01T08:26:37.791Z,43.94
2018-08-01T08:27:18.635Z,43.54
2018-08-01T08:27:59.428Z,41.82
2018-08-01T08:28:40.251Z,42.96
2018-08-01T08:29:21.129Z,44.5
2018-08-01T08:30:02.009Z,45.62
2018-08-01T08:30:42.769Z,46.9
2018-08-01T08:31:23.609Z,47.56
2018-08-01T08:32:04.446Z,47.92
2018-08-01T08:32:45.198Z,47.56
2018-08-01T08:33:26.073Z,48.11
2018-08-01T08:34:06.837Z,48.26
2018-08-01T08:34:47.594Z,47.54
2018-08-01T08:35:28.372Z,47.25
2018-08-01T08:36:09.145Z,46.27
2018-08-01T08:36:50.141Z,45.35
2018-08-01T08:37:31.010Z,45.27
2018-08-01T08:38:11.825Z,45.12
2018-08-01T08:38:52.655Z,44.06
2018-08-01T08:39:33.446Z,41.86
2018-08-01T08:40:14.213Z,40.42
2018-08-01T08:40:55.079Z,40.51
2018-08-01T08:41:35.903Z,40.55
2018-08-01T08:42:16.704Z,40.39
2018-08-01T08:42:57.499Z,39.6
2018-08-01T08:43:38.302Z,39.17
2018-08-01T08:44:19.163Z,38.65
2018-08-01T08:45:00.090Z,38.44
2018-08-01T08:45:40.962Z,38.09
2018-08-01T08:46:21.735Z,37.31
2018-08-01T08:47:02.516Z,37.05
2018-08-01T08:47:43.353Z,36.72
2018-08-01T08:48:24.228Z,36.53
2018-08-01T08:49:05.136Z,36.19
2018-08-01T08:49:45.761Z,35.99
2018-08-01T08:50:26.594Z,35.52
2018-08-01T08:51:07.511Z,35.33
2018-08-01T08:51:48.335Z,35.21
2018-08-01T08:52:29.087Z,34.94
2018-08-01T08:53:09.865Z,34.81
2018-08-01T08:53:50.734Z,34.73
2018-08-01T08:54:31.452Z,34.72
2018-08-01T08:55:12.342Z,34.5
2018-08-01T08:55:53.101Z,34.49
2018-08-01T08:56:33.938Z,34.24
2018-08-01T08:57:14.710Z,34.12
2018-08-01T08:57:55.489Z,34.12
2018-08-01T08:58:36.373Z,34.03
2018-08-01T08:59:17.145Z,33.97
2018-08-01T08:59:57.926Z,33.93
2018-08-01T09:00:38.840Z,33.86
2018-08-01T09:01:19.538Z,33.79
2018-08-01T09:02:00.359Z,33.5
2018-08-01T09:02:41.154Z,33.54
2018-08-01T09:03:21.906Z,33.45
2018-08-01T09:04:02.786Z,33.28
2018-08-01T09:04:43.561Z,33.31
2018-08-01T09:05:24.299Z,33.28
2018-08-01T09:06:05.093Z,33.29
2018-08-01T09:06:45.860Z,33.18
2018-08-01T09:07:26.711Z,33.11
2018-08-01T09:08:07.515Z,33.04
2018-08-01T09:08:48.280Z,32.97
2018-08-01T09:09:29.137Z,32.72
2018-08-01T09:10:09.964Z,32.63
2018-08-01T09:10:50.758Z,32.57
2018-08-01T09:11:31.517Z,32.55
2018-08-01T09:12:12.671Z,32.47
2018-08-01T09:12:53.127Z,32.5
2018-08-01T09:13:33.951Z,32.5
2018-08-01T09:14:14.721Z,32.52
2018-08-01T09:14:55.583Z,32.3
2018-08-01T09:15:36.364Z,32.08
2018-08-01T09:16:17.104Z,32.08
2018-08-01T09:16:57.961Z,32.01
2018-08-01T09:17:38.717Z,32.1
2018-08-01T09:18:19.479Z,32.08
2018-08-01T09:19:00.270Z,32.08
2018-08-01T09:19:41.001Z,32.1
2018-08-01T09:20:21.851Z,32.1
2018-08-01T09:21:02.671Z,32.11
2018-08-01T09:21:43.544Z,32.07
2018-08-01T09:22:24.330Z,32.1
2018-08-01T09:23:05.050Z,32
2018-08-01T09:23:45.815Z,32.06
2018-08-01T09:24:26.613Z,31.92
2018-08-01T09:25:07.465Z,31.81
2018-08-01T09:25:48.228Z,31.88
2018-08-01T09:26:29.018Z,31.88
2018-08-01T09:27:09.852Z,31.91
2018-08-01T09:27:50.653Z,31.84
2018-08-01T09:28:31.479Z,31.73
2018-08-01T09:29:12.236Z,31.63
2018-08-01T09:29:52.987Z,31.57
2018-08-01T09:30:33.753Z,31.53
2018-08-01T09:31:14.575Z,31.47
2018-08-01T09:31:55.380Z,31.35
2018-08-01T09:32:36.224Z,31.54
2018-08-01T09:33:16.995Z,31.57
2018-08-01T09:33:57.812Z,31.65
2018-08-01T09:34:38.556Z,31.61
2018-08-01T09:35:19.362Z,31.58
2018-08-01T09:36:00.129Z,31.54
2018-08-01T09:36:40.955Z,31.39
2018-08-01T09:37:21.719Z,31.38
2018-08-01T09:38:02.547Z,31.44
2018-08-01T09:38:43.289Z,31.43
2018-08-01T09:39:24.074Z,31.43
2018-08-01T09:40:04.899Z,31.44
2018-08-01T09:40:45.780Z,31.5
2018-08-01T09:41:26.645Z,31.53
2018-08-01T09:42:07.389Z,31.32
2018-08-01T09:42:48.198Z,31.26
2018-08-01T09:43:29.073Z,31.2
2018-08-01T09:44:09.815Z,31.16
2018-08-01T09:44:50.589Z,31.19
2018-08-01T09:45:31.342Z,31.14
2018-08-01T09:46:12.128Z,31.04
2018-08-01T09:46:52.948Z,31.09
2018-08-01T09:47:33.766Z,31.07
2018-08-01T09:48:14.554Z,31.21
2018-08-01T09:48:55.313Z,31.23
2018-08-01T09:49:36.074Z,31.17
2018-08-01T09:50:16.823Z,31.21
2018-08-01T09:50:57.657Z,31.2
2018-08-01T09:51:38.459Z,31.26
2018-08-01T09:52:19.188Z,31.17
2018-08-01T09:53:00.121Z,31.28
2018-08-01T09:53:41.093Z,31.25
2018-08-01T09:54:22.102Z,31.16
2018-08-01T09:55:02.743Z,31.1
2018-08-01T09:55:43.495Z,30.94
2018-08-01T09:56:24.113Z,30.7
2018-08-01T09:57:04.889Z,30.76
2018-08-01T09:57:45.760Z,30.91
2018-08-01T09:58:26.538Z,30.91
2018-08-01T09:59:07.371Z,30.84
2018-08-01T09:59:48.129Z,30.84
2018-08-01T10:00:28.953Z,30.83
2018-08-01T10:01:09.763Z,30.92
2018-08-01T10:01:50.527Z,30.91
2018-08-01T10:02:31.328Z,30.95
2018-08-01T10:03:12.109Z,30.88
2018-08-01T10:03:52.911Z,30.88
2018-08-01T10:04:33.808Z,30.83
2018-08-01T10:05:14.645Z,30.94
2018-08-01T10:05:55.475Z,30.89
2018-08-01T10:06:36.299Z,30.89
2018-08-01T10:07:17.067Z,30.92
2018-08-01T10:07:57.880Z,30.91
2018-08-01T10:08:38.706Z,30.94
2018-08-01T10:09:19.496Z,30.88
2018-08-01T10:10:00.320Z,30.82
2018-08-01T10:10:41.158Z,30.88
2018-08-01T10:11:22.020Z,30.83
2018-08-01T10:12:02.835Z,30.83
2018-08-01T10:12:43.596Z,30.72
2018-08-01T10:13:24.374Z,30.91
2018-08-01T10:14:05.250Z,30.91
2018-08-01T10:14:45.993Z,30.83
2018-08-01T10:15:26.763Z,30.82
2018-08-01T10:16:07.489Z,30.76
2018-08-01T10:16:48.270Z,30.7
2018-08-01T10:17:29.099Z,30.83
2018-08-01T10:18:09.827Z,30.76
2018-08-01T10:18:50.605Z,30.8
2018-08-01T10:19:31.516Z,30.76
2018-08-01T10:20:12.424Z,30.67
2018-08-01T10:20:53.200Z,30.69
2018-08-01T10:21:33.941Z,30.82
2018-08-01T10:22:14.684Z,30.77
2018-08-01T10:22:55.450Z,30.86
2018-08-01T10:23:36.266Z,30.79
2018-08-01T10:24:17.103Z,30.79
2018-08-01T10:24:57.969Z,30.84
2018-08-01T10:25:38.720Z,30.97
2018-08-01T10:26:19.505Z,30.88
2018-08-01T10:27:00.403Z,30.94
2018-08-01T10:27:41.150Z,30.86
2018-08-01T10:28:21.917Z,30.88
2018-08-01T10:29:02.666Z,30.88
2018-08-01T10:29:43.443Z,30.79
2018-08-01T10:30:24.298Z,30.76
2018-08-01T10:31:05.016Z,30.76
2018-08-01T10:31:45.787Z,30.77
2018-08-01T10:32:26.605Z,30.72
2018-08-01T10:33:07.423Z,30.76
2018-08-01T10:33:48.250Z,30.79
2018-08-01T10:34:29.004Z,30.83
2018-08-01T10:35:09.754Z,30.69
2018-08-01T10:35:50.590Z,30.8
2018-08-01T10:36:31.322Z,30.79
2018-08-01T10:37:12.062Z,30.79
2018-08-01T10:37:52.826Z,30.86
2018-08-01T10:38:33.633Z,30.92
2018-08-01T10:39:14.480Z,30.89
2018-08-01T10:39:55.354Z,30.95
2018-08-01T10:40:36.121Z,30.95
2018-08-01T10:41:16.846Z,31.09
2018-08-01T10:41:57.619Z,30.97
2018-08-01T10:42:38.485Z,30.88
2018-08-01T10:43:19.250Z,30.94
2018-08-01T10:44:00.010Z,30.86
2018-08-01T10:44:40.785Z,30.86
2018-08-01T10:45:21.669Z,30.88
2018-08-01T10:46:02.481Z,30.86
2018-08-01T10:46:43.253Z,30.83
2018-08-01T10:47:24.015Z,30.73
2018-08-01T10:48:04.821Z,30.77
2018-08-01T10:48:45.709Z,30.72
2018-08-01T10:49:26.490Z,30.7
2018-08-01T10:50:07.230Z,30.79
2018-08-01T10:50:48.020Z,30.79
2018-08-01T10:51:28.813Z,30.83
2018-08-01T10:52:09.701Z,30.76
2018-08-01T10:52:50.498Z,30.88
2018-08-01T10:53:31.306Z,30.86
2018-08-01T10:54:12.159Z,30.8
2018-08-01T10:54:52.929Z,30.86
2018-08-01T10:55:33.774Z,30.86
2018-08-01T10:56:14.568Z,30.86
2018-08-01T10:56:55.342Z,30.79
2018-08-01T10:57:36.160Z,30.83
2018-08-01T10:58:17.058Z,30.83
2018-08-01T10:58:57.844Z,30.77
2018-08-01T10:59:38.757Z,30.83
2018-08-01T11:00:19.485Z,30.77
2018-08-01T11:01:00.264Z,30.82
2018-08-01T11:01:41.160Z,30.7
2018-08-01T11:02:21.890Z,30.82
2018-08-01T11:03:02.688Z,30.79
2018-08-01T11:03:43.446Z,30.86
2018-08-01T11:04:24.258Z,30.8
2018-08-01T11:05:05.275Z,30.82
2018-08-01T11:05:46.062Z,30.83
2018-08-01T11:06:26.878Z,30.91
2018-08-01T11:07:07.624Z,30.84
2018-08-01T11:07:48.411Z,30.84
2018-08-01T11:08:29.238Z,30.88
2018-08-01T11:09:10.027Z,30.88
2018-08-01T11:09:50.817Z,30.92
2018-08-01T11:10:31.569Z,30.88
2018-08-01T11:11:12.365Z,30.91
2018-08-01T11:11:53.233Z,30.98
2018-08-01T11:12:34.072Z,30.95
2018-08-01T11:13:14.838Z,30.88
2018-08-01T11:13:55.620Z,30.95
2018-08-01T11:14:36.335Z,30.98
2018-08-01T11:15:17.183Z,30.98
2018-08-01T11:15:57.968Z,30.94
2018-08-01T11:16:38.758Z,30.86
2018-08-01T11:17:19.585Z,30.94
2018-08-01T11:18:00.451Z,30.84
2018-08-01T11:18:41.175Z,30.94
2018-08-01T11:19:22.007Z,30.95
2018-08-01T11:20:02.724Z,31.04
2018-08-01T11:20:43.489Z,30.95
2018-08-01T11:21:24.272Z,30.86
2018-08-01T11:22:05.172Z,30.86
2018-08-01T11:22:45.992Z,30.83
2018-08-01T11:23:26.757Z,30.92
2018-08-01T11:24:07.558Z,30.88
2018-08-01T11:24:48.406Z,30.99
2018-08-01T11:25:29.260Z,30.89
2018-08-01T11:26:10.054Z,30.88
2018-08-01T11:26:50.820Z,30.86
2018-08-01T11:27:31.625Z,30.97
2018-08-01T11:28:12.468Z,30.97
2018-08-01T11:28:53.239Z,30.95
2018-08-01T11:29:33.970Z,30.95
2018-08-01T11:30:14.757Z,30.95
2018-08-01T11:30:55.614Z,31.04
2018-08-01T11:31:36.434Z,30.98
2018-08-01T11:32:17.239Z,31.01
2018-08-01T11:32:58.007Z,31.01
2018-08-01T11:33:38.796Z,31.06
2018-08-01T11:34:19.540Z,30.97
2018-08-01T11:35:00.297Z,31.01
2018-08-01T11:35:41.198Z,30.98
2018-08-01T11:36:21.943Z,31.06
2018-08-01T11:37:02.694Z,31.04
2018-08-01T11:37:43.510Z,31.06
2018-08-01T11:38:24.334Z,30.99
2018-08-01T11:39:05.132Z,31.09
2018-08-01T11:39:45.990Z,31.01
2018-08-01T11:40:26.804Z,31.04
2018-08-01T11:41:07.575Z,31.02
2018-08-01T11:41:48.334Z,31.12
2018-08-01T11:42:29.131Z,30.94
2018-08-01T11:43:09.885Z,30.82
2018-08-01T11:43:50.689Z,30.91
2018-08-01T11:44:31.493Z,30.91
2018-08-01T11:45:12.311Z,30.89
2018-08-01T11:45:53.081Z,30.94
2018-08-01T11:46:33.853Z,30.89
2018-08-01T11:47:14.687Z,30.98
2018-08-01T11:47:55.614Z,30.92
2018-08-01T11:48:36.330Z,30.99
2018-08-01T11:49:17.126Z,30.84
2018-08-01T11:49:57.896Z,30.95
2018-08-01T11:50:38.734Z,30.99
2018-08-01T11:51:19.596Z,30.94
2018-08-01T11:52:00.443Z,30.84
2018-08-01T11:52:41.204Z,30.79
2018-08-01T11:53:21.988Z,30.83
2018-08-01T11:54:02.812Z,30.77
2018-08-01T11:54:43.592Z,30.83
2018-08-01T11:55:24.331Z,30.84
2018-08-01T11:56:05.137Z,30.88
2018-08-01T11:56:45.985Z,30.97
2018-08-01T11:57:26.762Z,30.95
2018-08-01T11:58:07.492Z,30.95
2018-08-01T11:58:48.294Z,30.98
2018-08-01T11:59:29.110Z,31.02
2018-08-01T12:00:09.943Z,30.95
2018-08-01T12:00:50.722Z,31.01
2018-08-01T12:01:31.440Z,31.06
2018-08-01T12:02:12.293Z,31.02
2018-08-01T12:02:53.142Z,31.07
2018-08-01T12:03:33.870Z,31.06
2018-08-01T12:04:14.662Z,30.98
2018-08-01T12:04:55.396Z,30.98
2018-08-01T12:05:36.264Z,30.98
2018-08-01T12:06:17.037Z,31.04
2018-08-01T12:06:57.899Z,31.06
2018-08-01T12:07:38.686Z,31.02
2018-08-01T12:08:19.466Z,30.97
2018-08-01T12:09:00.225Z,31.1
2018-08-01T12:09:41.033Z,31.01
2018-08-01T12:10:21.839Z,31.04
2018-08-01T12:11:02.614Z,30.99
2018-08-01T12:11:43.370Z,31.09
2018-08-01T12:12:24.205Z,31.1
2018-08-01T12:13:05.044Z,31.1
2018-08-01T12:13:45.867Z,31.09
2018-08-01T12:14:26.600Z,31.12
2018-08-01T12:15:07.400Z,31.02
2018-08-01T12:15:48.119Z,31.02
2018-08-01T12:16:28.982Z,31.02
2018-08-01T12:17:09.783Z,30.94
2018-08-01T12:17:50.675Z,30.95
2018-08-01T12:18:31.422Z,30.88
2018-08-01T12:19:12.168Z,30.95
2018-08-01T12:19:52.976Z,30.97
2018-08-01T12:20:33.837Z,31.06
2018-08-01T12:21:14.584Z,31.1
2018-08-01T12:21:55.432Z,30.92
2018-08-01T12:22:36.216Z,31.01
2018-08-01T12:23:17.128Z,31.07
2018-08-01T12:23:57.989Z,30.98
2018-08-01T12:24:38.910Z,31.02
2018-08-01T12:25:19.644Z,31.04
2018-08-01T12:26:00.456Z,31.12
2018-08-01T12:26:41.224Z,31.13
2018-08-01T12:27:22.082Z,31.06
2018-08-01T12:28:02.854Z,31.09
2018-08-01T12:28:43.620Z,31.1
2018-08-01T12:29:24.473Z,31.19
2018-08-01T12:30:05.420Z,31.13
2018-08-01T12:30:46.271Z,31.01
2018-08-01T12:31:27.048Z,30.99
2018-08-01T12:32:07.796Z,30.91
2018-08-01T12:32:48.615Z,30.95
2018-08-01T12:33:29.391Z,31.02
2018-08-01T12:34:10.141Z,31.04
2018-08-01T12:34:50.950Z,31.01
2018-08-01T12:35:31.630Z,30.95
2018-08-01T12:36:12.469Z,30.99
2018-08-01T12:36:53.271Z,31.09
2018-08-01T12:37:34.032Z,31.09
2018-08-01T12:38:14.869Z,31.1
2018-08-01T12:38:55.679Z,30.98
2018-08-01T12:39:36.583Z,30.88
2018-08-01T12:40:17.365Z,30.84
2018-08-01T12:40:58.115Z,30.99
2018-08-01T12:41:38.866Z,30.97
2018-08-01T12:42:19.765Z,30.97
2018-08-01T12:43:00.529Z,31.06
2018-08-01T12:43:41.433Z,31.07
2018-08-01T12:44:22.202Z,31.02
2018-08-01T12:45:02.937Z,30.97
2018-08-01T12:45:43.761Z,31.04
2018-08-01T12:46:24.575Z,30.98
2018-08-01T12:47:05.362Z,31.12
2018-08-01T12:47:46.102Z,31.04
2018-08-01T12:48:26.844Z,31.13
2018-08-01T12:49:07.701Z,31.12
2018-08-01T12:49:48.421Z,31.07
2018-08-01T12:50:29.196Z,31.13
2018-08-01T12:51:10.037Z,31.12
2018-08-01T12:51:50.826Z,31.13
2018-08-01T12:52:31.672Z,31.16
2018-08-01T12:53:12.444Z,31.09
2018-08-01T12:53:53.246Z,30.97
2018-08-01T12:54:34.065Z,30.97
2018-08-01T12:55:14.924Z,31.04
2018-08-01T12:55:55.668Z,30.97
2018-08-01T12:56:36.452Z,30.94
2018-08-01T12:57:17.222Z,30.99
2018-08-01T12:57:58.048Z,30.99
2018-08-01T12:58:38.907Z,31.04
2018-08-01T12:59:19.675Z,31.04
2018-08-01T13:00:00.465Z,30.99
2018-08-01T13:00:41.226Z,31.09
2018-08-01T13:01:22.005Z,30.99
2018-08-01T13:02:02.809Z,30.95
2018-08-01T13:02:43.637Z,31.09
2018-08-01T13:03:24.430Z,31.1
2018-08-01T13:04:05.294Z,30.99
2018-08-01T13:04:46.080Z,30.98
2018-08-01T13:05:26.924Z,30.99
2018-08-01T13:06:07.674Z,30.98
2018-08-01T13:06:48.436Z,31.02
2018-08-01T13:07:29.287Z,31.09
2018-08-01T13:08:10.059Z,31.04
2018-08-01T13:08:50.813Z,31.02
2018-08-01T13:09:31.601Z,31.06
2018-08-01T13:10:12.369Z,31.1
2018-08-01T13:10:53.203Z,31.12
2018-08-01T13:11:33.971Z,31.06
2018-08-01T13:12:14.737Z,31.06
2018-08-01T13:12:55.557Z,31.06
2018-08-01T13:13:36.358Z,31.07
2018-08-01T13:14:17.220Z,31.09
2018-08-01T13:14:58.007Z,31.17
2018-08-01T13:15:38.784Z,31.13
2018-08-01T13:16:19.545Z,31.16
2018-08-01T13:17:00.344Z,31.14
2018-08-01T13:17:41.186Z,30.99
2018-08-01T13:18:22.094Z,31.07
2018-08-01T13:19:02.892Z,31.09
2018-08-01T13:19:43.681Z,31.1
2018-08-01T13:20:24.473Z,31.14
2018-08-01T13:21:05.244Z,31.14
2018-08-01T13:21:46.021Z,31.09
2018-08-01T13:22:26.807Z,31.06
2018-08-01T13:23:07.534Z,31.1
2018-08-01T13:23:48.393Z,31.13
2018-08-01T13:24:29.241Z,31.1
2018-08-01T13:25:10.082Z,30.97
2018-08-01T13:25:50.875Z,31.14
2018-08-01T13:26:31.606Z,31.14
2018-08-01T13:27:12.421Z,31.12
2018-08-01T13:27:53.136Z,31.06
2018-08-01T13:28:33.981Z,31.12
2018-08-01T13:29:14.751Z,31.1
2018-08-01T13:29:55.591Z,31.2
2018-08-01T13:30:36.401Z,31.14
2018-08-01T13:31:17.270Z,31.13
2018-08-01T13:31:58.052Z,31.12
2018-08-01T13:32:38.846Z,31.12
2018-08-01T13:33:19.551Z,31.17
2018-08-01T13:34:00.282Z,31.17
2018-08-01T13:34:41.152Z,31.21
2018-08-01T13:35:21.924Z,31.14
2018-08-01T13:36:02.747Z,31.1
2018-08-01T13:36:43.531Z,31.19
2018-08-01T13:37:24.279Z,31.17
2018-08-01T13:38:05.158Z,31.17
2018-08-01T13:38:46.012Z,31.2
2018-08-01T13:39:26.725Z,31.12
2018-08-01T13:40:07.456Z,31.16
2018-08-01T13:40:48.215Z,31.21
2018-08-01T13:41:29.053Z,31.13
2018-08-01T13:42:09.859Z,31.14
2018-08-01T13:42:50.595Z,31.14
2018-08-01T13:43:31.417Z,31.17
2018-08-01T13:44:12.223Z,31.13
2018-08-01T13:44:53.079Z,31.17
2018-08-01T13:45:33.869Z,31.19
2018-08-01T13:46:14.645Z,31.12
2018-08-01T13:46:55.445Z,31.07
2018-08-01T13:47:36.273Z,31.09
2018-08-01T13:48:17.027Z,31.1
2018-08-01T13:48:57.766Z,31.13
2018-08-01T13:49:38.536Z,31.06
2018-08-01T13:50:19.370Z,31.01
2018-08-01T13:51:00.222Z,31.09
2018-08-01T13:51:41.053Z,31.07
2018-08-01T13:52:21.777Z,30.95
2018-08-01T13:53:02.665Z,30.98
2018-08-01T13:53:43.415Z,31.06
2018-08-01T13:54:24.217Z,30.98
2018-08-01T13:55:05.062Z,31.07
2018-08-01T13:55:45.810Z,31.16
2018-08-01T13:56:26.647Z,31.13
2018-08-01T13:57:07.492Z,31.13
2018-08-01T13:57:48.313Z,31.19
2018-08-01T13:58:29.138Z,31.12
2018-08-01T13:59:09.877Z,31.14
2018-08-01T13:59:50.649Z,31.09
2018-08-01T14:00:31.368Z,31.1
2018-08-01T14:01:12.181Z,31.07
2018-08-01T14:01:53.052Z,31.09
2018-08-01T14:02:33.885Z,31.09
2018-08-01T14:03:14.653Z,31.04
2018-08-01T14:03:55.449Z,31.12
2018-08-01T14:04:36.314Z,31.12
2018-08-01T14:05:17.071Z,31.01
2018-08-01T14:05:57.843Z,31.1
2018-08-01T14:06:38.602Z,31.07
2018-08-01T14:07:19.401Z,31.09
2018-08-01T14:08:00.245Z,31.02
2018-08-01T14:08:41.074Z,31.02
2018-08-01T14:09:21.856Z,30.99
2018-08-01T14:10:02.609Z,30.99
2018-08-01T14:10:43.371Z,31.12
2018-08-01T14:11:24.167Z,31.12
2018-08-01T14:12:05.012Z,31.13
2018-08-01T14:12:45.827Z,31.09
2018-08-01T14:13:26.573Z,31.02
2018-08-01T14:14:07.443Z,31.04
2018-08-01T14:14:48.280Z,30.91
2018-08-01T14:15:29.087Z,30.95
2018-08-01T14:16:09.877Z,30.89
2018-08-01T14:16:50.631Z,30.99
2018-08-01T14:17:31.518Z,30.94
2018-08-01T14:18:12.336Z,30.95
2018-08-01T14:18:53.103Z,31.01
2018-08-01T14:19:33.924Z,31.01
2018-08-01T14:20:14.735Z,31.01
2018-08-01T14:20:55.530Z,31.02
2018-08-01T14:21:36.294Z,30.99
2018-08-01T14:22:17.073Z,30.99
2018-08-01T14:22:57.875Z,31.1
2018-08-01T14:23:38.714Z,31.13
2018-08-01T14:24:19.561Z,31.13
2018-08-01T14:25:00.268Z,31.07
2018-08-01T14:25:40.991Z,31.14
2018-08-01T14:26:21.782Z,31.09
2018-08-01T14:27:02.586Z,31.17
2018-08-01T14:27:43.468Z,31.13
2018-08-01T14:28:24.246Z,31.17
2018-08-01T14:29:05.075Z,31.17
2018-08-01T14:29:45.881Z,31.07
2018-08-01T14:30:27.020Z,31.09
2018-08-01T14:31:07.499Z,31.06
2018-08-01T14:31:48.269Z,31.09
2018-08-01T14:32:29.013Z,31.07
2018-08-01T14:33:09.888Z,31.04
2018-08-01T14:33:50.666Z,31.04
2018-08-01T14:34:31.569Z,30.92
2018-08-01T14:35:12.426Z,30.98
2018-08-01T14:35:53.217Z,31.04
2018-08-01T14:36:33.969Z,31.02
2018-08-01T14:37:14.741Z,31.04
2018-08-01T14:37:55.575Z,31.1
2018-08-01T14:38:36.425Z,31.12
2018-08-01T14:39:17.172Z,31.09
2018-08-01T14:39:57.959Z,31.04
2018-08-01T14:40:38.781Z,31.1
2018-08-01T14:41:19.564Z,31.07
2018-08-01T14:42:00.615Z,30.99
2018-08-01T14:42:41.175Z,31.02
2018-08-01T14:43:21.914Z,31.02
2018-08-01T14:44:02.708Z,31.13
2018-08-01T14:44:43.529Z,31.09
2018-08-01T14:45:24.394Z,31.1
2018-08-01T14:46:05.235Z,31.17
2018-08-01T14:46:45.980Z,31.16
2018-08-01T14:47:26.758Z,31.16
2018-08-01T14:48:07.649Z,31.13
2018-08-01T14:48:48.462Z,31.12
2018-08-01T14:49:29.205Z,31.07
2018-08-01T14:50:09.954Z,31.19
2018-08-01T14:50:50.778Z,31.16
2018-08-01T14:51:31.617Z,31.13
2018-08-01T14:52:12.354Z,31.17
2018-08-01T14:52:53.088Z,31.13
2018-08-01T14:53:33.906Z,31.09
2018-08-01T14:54:14.741Z,31.12
2018-08-01T14:54:55.533Z,31.09
2018-08-01T14:55:36.334Z,31.09
2018-08-01T14:56:17.158Z,31.12
2018-08-01T14:56:58.039Z,31.12
2018-08-01T14:57:38.739Z,31.13
2018-08-01T14:58:19.519Z,31.16
2018-08-01T14:59:00.272Z,31.04
2018-08-01T14:59:41.074Z,31.09
2018-08-01T15:00:21.958Z,31.12
2018-08-01T15:01:02.794Z,31.04
2018-08-01T15:01:43.623Z,31.06
2018-08-01T15:02:24.336Z,31.01
2018-08-01T15:03:05.108Z,31.13
2018-08-01T15:03:45.947Z,31.1
2018-08-01T15:04:26.798Z,31.16
2018-08-01T15:05:07.591Z,31.13
2018-08-01T15:05:48.336Z,31.02
2018-08-01T15:06:29.175Z,31.07
2018-08-01T15:07:10.023Z,31.1
2018-08-01T15:07:50.867Z,31.13
2018-08-01T15:08:31.647Z,31.01
2018-08-01T15:09:12.447Z,31.07
2018-08-01T15:09:53.314Z,31.09
2018-08-01T15:10:34.081Z,31.09
2018-08-01T15:11:14.845Z,31.1
2018-08-01T15:11:55.571Z,31.06
2018-08-01T15:12:36.367Z,31.1
2018-08-01T15:13:17.256Z,31.04
2018-08-01T15:13:58.882Z,31.09
2018-08-01T15:14:39.229Z,30.99
2018-08-01T15:15:20.092Z,31.01
2018-08-01T15:16:00.863Z,31.01
2018-08-01T15:16:41.715Z,31.06
2018-08-01T15:17:22.482Z,31.13
2018-08-01T15:18:03.236Z,31.12
2018-08-01T15:18:43.999Z,31.07
2018-08-01T15:19:24.848Z,31.09
2018-08-01T15:20:05.691Z,31.1
2018-08-01T15:20:46.536Z,31.1
2018-08-01T15:21:27.310Z,31.06
2018-08-01T15:22:08.106Z,31.06
2018-08-01T15:22:48.949Z,31.02
2018-08-01T15:23:29.735Z,30.97
2018-08-01T15:24:10.473Z,30.95
2018-08-01T15:24:51.246Z,30.95
2018-08-01T15:25:32.170Z,30.99
2018-08-01T15:26:13.171Z,30.92
2018-08-01T15:26:53.605Z,30.94
2018-08-01T15:27:34.391Z,30.98
2018-08-01T15:28:15.235Z,30.95
2018-08-01T15:28:56.021Z,30.94
2018-08-01T15:29:36.896Z,30.94
2018-08-01T15:30:17.613Z,30.94
2018-08-01T15:30:58.405Z,30.94
2018-08-01T15:31:39.268Z,30.95
2018-08-01T15:32:20.014Z,30.95
2018-08-01T15:33:00.747Z,30.94
2018-08-01T15:33:41.497Z,30.95
2018-08-01T15:34:22.257Z,30.94
2018-08-01T15:35:03.084Z,30.89
2018-08-01T15:35:43.923Z,30.97
2018-08-01T15:36:24.706Z,30.91
2018-08-01T15:37:05.492Z,30.86
2018-08-01T15:37:46.295Z,30.91
2018-08-01T15:38:27.073Z,30.88
2018-08-01T15:39:07.912Z,30.88
2018-08-01T15:39:48.721Z,30.95
2018-08-01T15:40:29.494Z,30.94
2018-08-01T15:41:10.376Z,30.83
2018-08-01T15:41:51.173Z,30.86
2018-08-01T15:42:32.042Z,30.86
2018-08-01T15:43:12.823Z,30.88
2018-08-01T15:43:53.627Z,30.86
2018-08-01T15:44:34.374Z,30.88
2018-08-01T15:45:15.153Z,30.79
2018-08-01T15:45:56.102Z,30.8
2018-08-01T15:46:36.779Z,30.79